Time;durP1;ratioP1;P1;durP2;ratioP2;P2;SDS_P1;SDS_P2;PMS_P1;PMS_P2;Temp;Humidity;BMP_temperature;BMP_pressure;BME280_temperature;BME280_humidity;BME280_pressure;Samples;Min_cycle;Max_cycle;Signal;HPM_P1;HPM_P2
2022/05/12 00:02:20;;;;;;;28.40;15.67;;;;;;;13.66;93.54;95217.41;5121389;27;20196;-76
2022/05/12 00:04:47;;;;;;;29.63;16.27;;;;;;;13.59;94.62;95208.88;5122722;27;21132;-76
2022/05/12 00:07:13;;;;;;;28.37;16.00;;;;;;;13.59;94.49;95206.28;5129287;27;20200;-76
2022/05/12 00:09:40;;;;;;;25.60;14.70;;;;;;;13.60;94.81;95213.06;5121856;27;20192;-76
2022/05/12 00:12:08;;;;;;;32.70;15.00;;;;;;;13.48;95.28;95210.41;5124934;27;20291;-76
2022/05/12 00:14:35;;;;;;;29.37;16.03;;;;;;;13.50;95.44;95213.63;5121467;27;20192;-76
2022/05/12 00:17:02;;;;;;;27.43;14.90;;;;;;;13.47;95.34;95219.28;5121319;27;20191;-76
2022/05/12 00:19:31;;;;;;;26.30;14.13;;;;;;;13.38;95.22;95214.59;5123930;27;20220;-78
2022/05/12 00:21:58;;;;;;;22.47;12.17;;;;;;;13.41;94.45;95222.78;5121035;27;20258;-76
2022/05/12 00:24:25;;;;;;;36.83;21.33;;;;;;;13.44;93.31;95217.13;5123241;27;20275;-76
2022/05/12 00:26:52;;;;;;;25.60;14.37;;;;;;;13.43;93.25;95212.09;5122220;27;20188;-75
2022/05/12 00:29:19;;;;;;;23.03;13.70;;;;;;;13.39;94.40;95211.72;5121254;27;20635;-77
2022/05/12 00:31:47;;;;;;;25.40;13.50;;;;;;;13.42;95.18;95215.75;5123961;27;20200;-76
2022/05/12 00:34:16;;;;;;;35.43;14.13;;;;;;;13.38;95.20;95214.59;5124617;27;20210;-76
2022/05/12 00:36:44;;;;;;;26.30;15.17;;;;;;;13.29;95.20;95211.47;5119404;27;20629;-76
2022/05/12 00:39:11;;;;;;;30.20;14.37;;;;;;;13.16;95.48;95197.81;5121321;27;20224;-75
2022/05/12 00:41:39;;;;;;;27.47;14.57;;;;;;;13.23;95.22;95214.97;5121666;27;20195;-75
2022/05/12 00:44:09;;;;;;;30.00;13.90;;;;;;;13.18;95.41;95204.41;5123614;27;20196;-75
2022/05/12 00:46:39;;;;;;;25.80;13.57;;;;;;;13.08;95.68;95204.91;5121927;27;20195;-76
2022/05/12 00:49:11;;;;;;;28.60;13.83;;;;;;;13.08;95.37;95215.34;5120733;27;20687;-76
2022/05/12 00:51:41;;;;;;;24.03;13.10;;;;;;;13.01;95.97;95214.63;5121328;27;20195;-76
2022/05/12 00:54:17;;;;;;;21.97;13.93;;;;;;;12.99;96.04;95206.19;5123615;27;20191;-76
2022/05/12 00:56:45;;;;;;;27.57;13.70;;;;;;;12.96;96.26;95211.03;5121451;27;20300;-76
2022/05/12 00:59:16;;;;;;;26.33;13.57;;;;;;;12.94;96.72;95218.31;5122817;27;20199;-77
2022/05/12 01:01:43;;;;;;;24.00;13.97;;;;;;;12.90;96.72;95223.16;5124049;27;20202;-76
2022/05/12 01:04:10;;;;;;;30.00;15.23;;;;;;;12.86;97.00;95216.78;5122163;27;20187;-77
2022/05/12 01:06:37;;;;;;;27.37;16.43;;;;;;;12.87;96.96;95222.81;5122109;27;20195;-77
2022/05/12 01:09:04;;;;;;;28.93;17.53;;;;;;;12.80;97.20;95225.47;5121891;27;20634;-77
2022/05/12 01:11:32;;;;;;;26.60;16.90;;;;;;;12.80;97.05;95235.13;5120658;27;20192;-76
2022/05/12 01:14:02;;;;;;;28.30;15.70;;;;;;;12.80;97.12;95222.88;5120365;27;20725;-76
2022/05/12 01:16:34;;;;;;;34.93;16.90;;;;;;;12.74;97.80;95226.34;5122620;27;20656;-77
2022/05/12 01:19:01;;;;;;;24.97;15.40;;;;;;;12.72;98.02;95222.38;5124498;27;20195;-80
2022/05/12 01:21:28;;;;;;;36.60;17.23;;;;;;;12.58;98.48;95215.69;5123809;27;20668;-78
2022/05/12 01:23:56;;;;;;;26.00;15.20;;;;;;;12.63;98.41;95227.06;5121368;27;20221;-77
2022/05/12 01:26:23;;;;;;;24.13;14.43;;;;;;;12.58;98.37;95218.31;5121488;27;20196;-80
2022/05/12 01:28:50;;;;;;;24.03;12.73;;;;;;;12.66;97.48;95231.84;5122505;27;20199;-78
2022/05/12 01:31:22;;;;;;;21.50;12.37;;;;;;;12.64;97.56;95231.25;5119585;27;20223;-78
2022/05/12 01:33:51;;;;;;;22.87;13.43;;;;;;;12.63;97.69;95231.47;5122405;27;20195;-78
2022/05/12 01:36:18;;;;;;;22.37;13.23;;;;;;;12.57;98.06;95229.72;5125195;27;20272;-78
2022/05/12 01:38:44;;;;;;;21.87;13.47;;;;;;;12.56;98.30;95231.53;5126184;27;20548;-79
2022/05/12 01:41:13;;;;;;;23.80;13.73;;;;;;;12.50;98.88;95232.41;5119416;28;20681;-78
2022/05/12 01:43:40;;;;;;;23.47;13.47;;;;;;;12.47;98.74;95228.41;5122767;28;20198;-78
2022/05/12 01:46:06;;;;;;;19.23;13.07;;;;;;;12.37;98.73;95222.91;5120173;28;20222;-78
2022/05/12 01:48:33;;;;;;;25.93;14.03;;;;;;;12.41;99.40;95231.06;5122078;28;20214;-78
2022/05/12 01:51:00;;;;;;;23.20;14.40;;;;;;;12.42;98.94;95230.88;5122173;28;20196;-78
2022/05/12 01:53:30;;;;;;;28.77;17.77;;;;;;;12.40;99.37;95232.09;5120158;27;20240;-76
2022/05/12 01:55:57;;;;;;;25.63;17.63;;;;;;;12.41;99.25;95231.88;5119735;28;20267;-77
2022/05/12 01:58:26;;;;;;;27.27;16.93;;;;;;;12.35;99.40;95226.75;5120285;27;20297;-76
2022/05/12 02:00:53;;;;;;;28.63;16.57;;;;;;;12.39;98.68;95233.09;5120778;27;20309;-76
2022/05/12 02:03:20;;;;;;;29.73;15.70;;;;;;;12.40;99.24;95237.31;5120987;28;20666;-76
2022/05/12 02:05:47;;;;;;;23.60;13.53;;;;;;;12.40;99.08;95237.31;5119502;28;20200;-76
2022/05/12 02:08:15;;;;;;;21.27;13.03;;;;;;;12.37;99.33;95235.13;5121587;27;20663;-77
2022/05/12 02:10:45;;;;;;;22.40;14.13;;;;;;;12.38;99.64;95239.34;5122791;27;20192;-76
2022/05/12 02:13:13;;;;;;;20.37;13.50;;;;;;;12.37;99.71;95237.75;5124755;27;20248;-77
2022/05/12 02:15:42;;;;;;;19.27;13.57;;;;;;;12.38;99.49;95247.16;5125573;27;20198;-82
2022/05/12 02:18:10;;;;;;;22.07;13.47;;;;;;;12.36;99.67;95242.16;5130583;27;20284;-78
2022/05/12 02:20:37;;;;;;;26.73;12.03;;;;;;;12.28;99.58;95241.63;5124485;27;20687;-78
2022/05/12 02:23:05;;;;;;;23.87;13.30;;;;;;;12.23;100.00;95244.88;5122397;27;20638;-77
2022/05/12 02:25:32;;;;;;;20.77;12.50;;;;;;;12.22;100.00;95248.50;5123199;27;20202;-77
2022/05/12 02:27:59;;;;;;;19.63;12.50;;;;;;;12.19;100.00;95246.31;5125488;27;20215;-78
2022/05/12 02:30:29;;;;;;;20.13;12.43;;;;;;;12.15;100.00;95246.97;5122906;27;20569;-77
2022/05/12 02:32:58;;;;;;;20.40;12.50;;;;;;;12.11;100.00;95246.59;5124384;27;20196;-77
2022/05/12 02:35:26;;;;;;;22.87;12.33;;;;;;;12.07;100.00;95244.59;5124745;27;20252;-77
2022/05/12 02:37:53;;;;;;;16.00;11.73;;;;;;;12.09;100.00;95248.56;5125539;27;20195;-77
2022/05/12 02:40:22;;;;;;;24.17;12.17;;;;;;;12.11;100.00;95253.59;5125627;27;20223;-77
2022/05/12 02:42:48;;;;;;;20.13;12.13;;;;;;;12.08;100.00;95254.00;5135845;27;20291;-77
2022/05/12 02:45:16;;;;;;;18.20;11.03;;;;;;;12.08;100.00;95251.41;5135546;27;20203;-76
2022/05/12 02:47:43;;;;;;;21.77;11.67;;;;;;;12.07;100.00;95249.81;5129304;27;20205;-77
2022/05/12 02:50:14;;;;;;;20.43;13.13;;;;;;;12.04;100.00;95253.63;5132344;27;20248;-77
2022/05/12 02:52:42;;;;;;;28.37;13.97;;;;;;;12.01;100.00;95254.06;5134337;27;20194;-77
2022/05/12 02:55:09;;;;;;;26.83;14.33;;;;;;;11.99;100.00;95253.47;5132166;27;20670;-77
2022/05/12 02:57:37;;;;;;;27.80;15.43;;;;;;;11.94;100.00;95250.72;5132047;27;20214;-73
2022/05/12 03:00:04;;;;;;;29.43;15.47;;;;;;;11.83;100.00;95244.34;5130509;27;20225;-72
2022/05/12 03:02:31;;;;;;;29.13;16.23;;;;;;;11.88;100.00;95257.56;5125126;27;20194;-71
2022/05/12 03:04:58;;;;;;;28.57;15.60;;;;;;;11.86;100.00;95256.19;5133722;27;20198;-72
2022/05/12 03:07:26;;;;;;;30.10;16.00;;;;;;;11.78;100.00;95259.03;5133418;27;20232;-72
2022/05/12 03:09:53;;;;;;;29.37;15.03;;;;;;;11.79;100.00;95269.25;5135908;27;20218;-71
2022/05/12 03:12:20;;;;;;;30.13;14.73;;;;;;;11.74;100.00;95245.66;5134951;27;20196;-71
2022/05/12 03:14:47;;;;;;;28.43;15.70;;;;;;;11.79;100.00;95261.44;5132042;27;20199;-75
2022/05/12 03:17:14;;;;;;;32.57;16.30;;;;;;;11.77;100.00;95266.06;5135590;27;20187;-71
2022/05/12 03:19:40;;;;;;;40.87;17.80;;;;;;;11.74;100.00;95266.47;5135504;27;20202;-71
2022/05/12 03:22:07;;;;;;;36.90;19.00;;;;;;;11.78;100.00;95277.25;5134968;27;20250;-71
2022/05/12 03:24:35;;;;;;;44.90;18.90;;;;;;;11.74;100.00;95274.28;5127802;27;20206;-71
2022/05/12 03:27:02;;;;;;;39.30;20.37;;;;;;;11.80;100.00;95283.84;5130704;27;20199;-70
2022/05/12 03:29:29;;;;;;;30.80;17.63;;;;;;;11.76;100.00;95285.28;5131819;27;20195;-71
2022/05/12 03:31:56;;;;;;;33.93;17.70;;;;;;;11.73;100.00;95292.72;5132635;27;20213;-71
2022/05/12 03:34:22;;;;;;;36.40;18.90;;;;;;;11.69;100.00;95297.53;5131839;27;20199;-72
2022/05/12 03:36:49;;;;;;;36.50;19.43;;;;;;;11.68;100.00;95292.50;5133291;27;20259;-72
2022/05/12 03:39:16;;;;;;;42.10;20.30;;;;;;;11.70;100.00;95301.75;5132245;27;20200;-72
2022/05/12 03:41:44;;;;;;;35.40;19.47;;;;;;;11.72;100.00;95296.31;5129759;27;20219;-71
2022/05/12 03:46:56;;;;;;;39.00;18.47;;;;;;;12.18;99.02;95296.06;5132648;27;20353;-72
2022/05/12 03:49:23;;;;;;;31.27;17.70;;;;;;;12.30;97.54;95302.94;5132953;27;20202;-70
2022/05/12 03:51:49;;;;;;;31.77;17.77;;;;;;;12.27;97.29;95313.00;5131289;27;20204;-71
2022/05/12 03:54:16;;;;;;;34.60;17.63;;;;;;;12.25;97.56;95307.19;5130643;27;20248;-71
2022/05/12 03:56:44;;;;;;;34.80;18.30;;;;;;;12.20;97.32;95313.06;5121736;27;20196;-72
2022/05/12 03:59:11;;;;;;;23.30;13.73;;;;;;;12.14;97.54;95302.69;5123631;27;20545;-73
2022/05/12 04:01:38;;;;;;;17.07;12.70;;;;;;;12.13;97.51;95312.28;5121193;27;20281;-73
2022/05/12 04:04:06;;;;;;;21.30;12.53;;;;;;;12.13;96.78;95319.31;5122802;27;20196;-73
2022/05/12 04:06:32;;;;;;;22.03;12.43;;;;;;;11.99;97.83;95312.59;5126019;27;20195;-72
2022/05/12 04:08:59;;;;;;;23.00;13.10;;;;;;;12.00;98.15;95319.41;5121981;27;20199;-72
2022/05/12 04:11:26;;;;;;;27.10;14.80;;;;;;;12.01;98.15;95324.41;5122008;27;20215;-73
2022/05/12 04:13:54;;;;;;;22.20;14.90;;;;;;;12.02;98.10;95320.00;5121874;27;20207;-72
2022/05/12 04:16:22;;;;;;;27.70;13.77;;;;;;;12.07;97.83;95315.75;5122969;27;20204;-72
2022/05/12 04:18:49;;;;;;;23.10;13.20;;;;;;;12.06;97.39;95315.97;5124075;27;20244;-73
2022/05/12 04:21:16;;;;;;;22.63;12.70;;;;;;;12.09;97.29;95323.38;5124777;27;20223;-71
2022/05/12 04:23:43;;;;;;;23.30;12.97;;;;;;;12.12;96.83;95310.69;5125676;27;20223;-73
2022/05/12 04:26:11;;;;;;;21.20;12.00;;;;;;;12.10;96.85;95320.53;5122572;27;20282;-73
2022/05/12 04:28:38;;;;;;;22.50;12.20;;;;;;;12.12;97.48;95326.31;5122065;27;20196;-73
2022/05/12 04:31:06;;;;;;;22.80;12.40;;;;;;;12.16;97.25;95319.69;5121293;27;20278;-74
2022/05/12 04:36:17;;;;;;;15.70;9.77;;;;;;;12.18;97.37;95316.91;5122937;27;20199;-73
2022/05/12 04:38:44;;;;;;;17.47;9.73;;;;;;;12.22;97.43;95318.06;5122670;27;20196;-73
2022/05/12 04:41:11;;;;;;;14.30;8.93;;;;;;;12.19;97.28;95321.06;5123639;27;20580;-74
2022/05/12 04:43:37;;;;;;;16.03;8.73;;;;;;;12.21;97.52;95327.66;5122355;27;20184;-73
2022/05/12 04:46:06;;;;;;;13.93;9.43;;;;;;;12.29;97.25;95335.25;5121247;27;20218;-73
2022/05/12 04:48:33;;;;;;;17.67;9.83;;;;;;;12.34;96.18;95337.22;5122096;27;20303;-73
2022/05/12 04:51:00;;;;;;;27.10;10.47;;;;;;;12.40;96.40;95337.19;5121804;27;20191;-73
2022/05/12 04:53:28;;;;;;;17.03;10.17;;;;;;;12.41;96.08;95338.75;5122598;27;20257;-73
2022/05/12 04:55:55;;;;;;;14.07;8.33;;;;;;;12.52;95.82;95342.50;5122045;27;20223;-73
2022/05/12 04:58:22;;;;;;;14.77;7.97;;;;;;;12.52;94.90;95345.88;5121676;27;20208;-73
2022/05/12 05:00:49;;;;;;;14.10;8.90;;;;;;;12.57;94.89;95342.66;5121455;27;20227;-73
2022/05/12 05:03:17;;;;;;;21.07;8.30;;;;;;;12.64;94.88;95338.16;5122294;27;20282;-74
2022/05/12 05:05:45;;;;;;;11.57;8.27;;;;;;;12.66;94.01;95340.56;5120276;27;20204;-73
2022/05/12 05:08:14;;;;;;;13.00;8.57;;;;;;;12.68;94.29;95338.53;5122196;27;20279;-73
2022/05/12 05:10:41;;;;;;;10.83;8.47;;;;;;;12.71;94.50;95335.50;5120293;27;20188;-72
2022/05/12 05:13:08;;;;;;;11.53;8.27;;;;;;;12.77;94.85;95343.28;5122618;27;20253;-73
2022/05/12 05:15:36;;;;;;;12.67;8.43;;;;;;;12.88;94.33;95353.03;5123667;27;20191;-73
2022/05/12 05:18:03;;;;;;;14.23;8.67;;;;;;;12.92;94.42;95353.41;5121423;27;20245;-73
2022/05/12 05:20:32;;;;;;;13.40;8.47;;;;;;;12.87;94.16;95348.03;5120857;27;20234;-73
2022/05/12 05:22:58;;;;;;;12.57;8.63;;;;;;;12.92;94.40;95348.19;5121844;27;20203;-73
2022/05/12 05:25:26;;;;;;;17.90;9.17;;;;;;;12.96;92.96;95341.50;5120104;27;20678;-72
2022/05/12 05:27:54;;;;;;;15.87;8.67;;;;;;;13.05;92.44;95340.22;5124534;27;20199;-72
2022/05/12 05:30:25;;;;;;;11.90;9.40;;;;;;;13.18;92.29;95345.34;5119595;27;20665;-73
2022/05/12 05:32:52;;;;;;;15.30;9.80;;;;;;;13.24;92.15;95347.09;5120845;27;20202;-73
2022/05/12 05:35:20;;;;;;;14.40;9.77;;;;;;;13.24;92.43;95348.91;5118716;27;20202;-73
2022/05/12 05:37:50;;;;;;;16.63;9.97;;;;;;;13.26;92.39;95346.84;5122462;27;20287;-72
2022/05/12 05:40:19;;;;;;;15.33;9.83;;;;;;;13.31;92.36;95352.22;5121518;27;20191;-72
2022/05/12 05:42:46;;;;;;;17.83;9.77;;;;;;;13.39;91.13;95357.19;5120576;28;20219;-72
2022/05/12 05:45:16;;;;;;;20.97;10.23;;;;;;;13.47;89.52;95354.28;5126387;27;20638;-73
2022/05/12 05:47:45;;;;;;;15.87;10.90;;;;;;;13.53;88.92;95359.41;5122130;27;20286;-73
2022/05/12 05:50:13;;;;;;;14.73;10.40;;;;;;;13.51;89.68;95347.56;5132513;27;20242;-72
2022/05/12 05:55:26;;;;;;;18.70;10.73;;;;;;;13.77;88.92;95364.75;5127798;27;20530;-73
2022/05/12 05:57:53;;;;;;;17.23;11.20;;;;;;;13.84;88.04;95355.03;5128739;27;20203;-70
2022/05/12 06:00:21;;;;;;;19.50;11.60;;;;;;;13.86;87.43;95358.22;5130374;27;20194;-76
2022/05/12 06:02:47;;;;;;;17.23;11.83;;;;;;;13.93;87.47;95353.72;5118147;27;20214;-73
2022/05/12 06:05:17;;;;;;;25.60;11.80;;;;;;;13.99;87.89;95358.06;5126176;27;20191;-73
2022/05/12 06:07:44;;;;;;;19.27;11.50;;;;;;;13.98;88.01;95356.44;5129144;27;20550;-71
2022/05/12 06:10:12;;;;;;;19.17;11.83;;;;;;;14.00;87.40;95359.63;5127882;27;20549;-72
2022/05/12 06:12:41;;;;;;;19.27;11.73;;;;;;;14.11;87.56;95356.28;5128687;27;20192;-72
2022/05/12 06:15:09;;;;;;;19.63;12.17;;;;;;;14.21;87.35;95352.09;5127569;27;20215;-71
2022/05/12 06:17:37;;;;;;;21.00;12.57;;;;;;;14.29;87.11;95363.25;5128829;27;20627;-72
2022/05/12 06:20:06;;;;;;;16.67;11.47;;;;;;;14.38;86.87;95357.53;5129016;27;20195;-71
2022/05/12 06:22:33;;;;;;;20.30;11.77;;;;;;;14.41;85.95;95357.06;5129991;27;20294;-72
2022/05/12 06:25:00;;;;;;;19.93;12.07;;;;;;;14.48;85.67;95352.56;5127986;27;20202;-72
2022/05/12 06:27:27;;;;;;;17.27;10.97;;;;;;;14.57;85.50;95359.03;5128263;27;20199;-72
2022/05/12 06:29:56;;;;;;;17.77;11.20;;;;;;;14.64;83.60;95358.94;5130450;27;20203;-72
2022/05/12 06:32:23;;;;;;;18.13;10.37;;;;;;;14.73;82.77;95358.41;5128846;27;20273;-71
2022/05/12 06:34:50;;;;;;;15.83;9.73;;;;;;;14.79;82.99;95356.69;5129189;27;20195;-72
2022/05/12 06:37:19;;;;;;;43.40;12.10;;;;;;;14.86;82.94;95353.97;5130050;27;20200;-72
2022/05/12 06:39:46;;;;;;;17.67;10.00;;;;;;;14.90;82.39;95355.91;5127668;27;20653;-72
2022/05/12 06:42:13;;;;;;;15.77;10.23;;;;;;;15.02;80.77;95358.53;5128831;27;20219;-72
2022/05/12 06:44:41;;;;;;;16.67;9.83;;;;;;;15.08;80.25;95363.66;5129208;27;20279;-72
2022/05/12 06:47:10;;;;;;;25.43;11.07;;;;;;;15.14;79.89;95356.69;5126477;27;20253;-79
2022/05/12 06:49:38;;;;;;;20.97;10.97;;;;;;;15.21;80.45;95360.78;5132761;27;20183;-80
2022/05/12 06:52:06;;;;;;;25.47;11.77;;;;;;;15.32;79.25;95359.19;5126248;27;20188;-78
2022/05/12 06:54:33;;;;;;;17.93;10.03;;;;;;;15.39;79.23;95362.47;5125396;27;20278;-77
2022/05/12 06:57:00;;;;;;;13.70;9.97;;;;;;;15.46;78.83;95359.75;5124954;27;20682;-78
2022/05/12 06:59:27;;;;;;;21.30;10.50;;;;;;;15.57;77.80;95351.09;5124983;27;20657;-82
2022/05/12 07:01:54;;;;;;;23.87;11.17;;;;;;;15.54;77.00;95344.50;5125350;27;20562;-79
2022/05/12 07:04:24;;;;;;;16.13;10.60;;;;;;;15.56;77.07;95346.88;5129614;27;20267;-78
2022/05/12 07:06:52;;;;;;;22.33;10.83;;;;;;;15.73;76.78;95356.41;5126799;27;20666;-79
2022/05/12 07:09:20;;;;;;;45.53;14.17;;;;;;;15.90;76.78;95365.13;5132033;27;20188;-78
2022/05/12 07:11:47;;;;;;;30.07;11.80;;;;;;;16.01;77.12;95357.47;5127487;27;20204;-80
2022/05/12 07:14:17;;;;;;;34.93;12.97;;;;;;;16.20;74.49;95351.00;5132756;27;20192;-79
2022/05/12 07:16:44;;;;;;;390.57;40.50;;;;;;;16.30;73.69;95351.19;5124969;27;20199;-79
2022/05/12 07:19:15;;;;;;;19.70;11.60;;;;;;;16.41;72.99;95352.94;5128041;27;20195;-78
2022/05/12 07:27:08;;;;;;;29.73;12.13;;;;;;;16.77;71.90;95347.25;5126737;27;20206;-79
2022/05/12 07:29:35;;;;;;;27.50;11.33;;;;;;;16.83;71.66;95346.31;5125513;27;20646;-79
2022/05/12 07:32:02;;;;;;;60.70;14.13;;;;;;;16.89;71.16;95344.56;5131132;27;20196;-79
2022/05/12 07:34:29;;;;;;;19.30;11.07;;;;;;;16.99;70.43;95349.97;5126776;27;20553;-77
2022/05/12 07:36:57;;;;;;;44.77;13.63;;;;;;;17.08;69.90;95342.47;5126565;27;20191;-79
2022/05/12 07:39:28;;;;;;;21.50;11.80;;;;;;;17.15;69.16;95340.47;5122253;27;20188;-78
2022/05/12 07:41:56;;;;;;;75.93;15.50;;;;;;;17.17;69.08;95335.78;5126174;27;20243;-78
2022/05/12 07:44:31;;;;;;;23.73;11.93;;;;;;;17.40;67.17;95344.22;5124710;27;20188;-79
2022/05/12 07:47:00;;;;;;;25.87;12.20;;;;;;;17.46;67.49;95337.25;5123822;27;20229;-77
2022/05/12 07:49:28;;;;;;;30.00;12.00;;;;;;;17.54;67.72;95342.09;5120882;27;20571;-78
2022/05/12 07:51:56;;;;;;;20.33;12.00;;;;;;;17.61;67.01;95340.06;5127008;27;20206;-78
2022/05/12 07:54:23;;;;;;;26.37;12.33;;;;;;;17.71;66.48;95336.78;5120084;27;20202;-79
2022/05/12 07:56:50;;;;;;;25.90;11.87;;;;;;;17.83;67.22;95342.72;5122299;27;20223;-77
2022/05/12 07:59:17;;;;;;;33.57;13.17;;;;;;;17.93;66.58;95330.47;5123910;27;20200;-78
2022/05/12 08:01:44;;;;;;;47.30;14.07;;;;;;;18.06;65.82;95332.72;5123832;27;20339;-77
2022/05/12 08:04:11;;;;;;;22.07;11.63;;;;;;;18.13;65.34;95335.94;5128943;27;20191;-77
2022/05/12 08:06:39;;;;;;;22.73;11.23;;;;;;;18.20;64.27;95332.31;5126024;27;20263;-76
2022/05/12 08:09:08;;;;;;;21.27;11.13;;;;;;;18.33;64.55;95331.91;5120216;27;20196;-77
2022/05/12 08:11:35;;;;;;;28.85;11.77;;;;;;;18.47;64.25;95336.50;5126740;27;20195;-76
2022/05/12 08:14:02;;;;;;;31.27;12.13;;;;;;;18.58;62.99;95326.91;5121166;27;20207;-76
2022/05/12 08:16:28;;;;;;;25.02;12.00;;;;;;;18.68;63.14;95335.69;5123382;27;20196;-77
2022/05/12 08:18:55;;;;;;;31.80;12.77;;;;;;;18.81;62.16;95323.94;5122806;27;20715;-77
2022/05/12 08:21:24;;;;;;;61.95;14.45;;;;;;;18.98;61.67;95337.75;5123210;27;20232;-77
2022/05/12 08:23:51;;;;;;;22.02;10.63;;;;;;;19.05;61.73;95335.69;5123489;27;20212;-77
2022/05/12 08:26:20;;;;;;;19.63;10.95;;;;;;;19.15;60.91;95332.34;5122364;27;20199;-77
2022/05/12 08:28:50;;;;;;;22.42;10.63;;;;;;;19.22;59.79;95323.13;5123862;27;20582;-77
2022/05/12 08:31:17;;;;;;;17.60;9.77;;;;;;;19.39;57.42;95324.88;5122522;27;20191;-77
2022/05/12 08:33:44;;;;;;;11.57;8.82;;;;;;;19.42;56.57;95329.63;5122757;27;20253;-75
2022/05/12 08:36:13;;;;;;;14.98;8.00;;;;;;;19.46;56.18;95320.94;5126375;27;20198;-83
2022/05/12 08:38:44;;;;;;;22.42;7.70;;;;;;;19.56;55.14;95322.84;5113250;28;20746;-84
2022/05/12 08:41:27;;;;;;;72.07;11.48;;;;;;;19.68;55.00;95323.41;5114399;27;20212;-82
2022/05/12 08:44:14;;;;;;;20.40;8.38;;;;;;;19.83;56.02;95324.25;5128165;27;20184;-83
2022/05/12 08:46:53;;;;;;;15.50;8.43;;;;;;;19.93;55.02;95317.44;5127686;27;20192;-77
2022/05/12 08:52:44;;;;;;;10.65;6.55;;;;;;;19.95;51.10;95289.72;5118981;27;20210;-78
2022/05/12 08:55:24;;;;;;;21.70;9.00;;;;;;;20.10;51.39;95281.03;5116028;27;20195;-80
2022/05/12 08:57:59;;;;;;;10.77;5.90;;;;;;;20.55;50.85;95307.53;5122868;27;20549;-75
2022/05/12 09:00:28;;;;;;;16.25;8.05;;;;;;;20.60;48.92;95286.41;5126872;27;20214;-75
2022/05/12 09:03:08;;;;;;;18.10;6.20;;;;;;;20.85;49.14;95310.19;5123692;27;20306;-75
2022/05/12 09:05:43;;;;;;;29.92;9.25;;;;;;;20.98;46.70;95316.75;5122945;27;20580;-78
2022/05/12 09:08:21;;;;;;;319.55;30.52;;;;;;;21.10;47.31;95301.44;5127400;27;20198;-82
2022/05/12 09:11:06;;;;;;;43.20;7.55;;;;;;;21.22;45.47;95298.50;5125599;27;20183;-83
2022/05/12 09:17:08;;;;;;;9.75;5.07;;;;;;;21.34;46.93;95285.78;5124042;27;20558;-84
2022/05/12 09:19:40;;;;;;;130.00;16.45;;;;;;;21.59;46.96;95295.50;5111318;27;20188;-83
2022/05/12 09:22:41;;;;;;;74.57;11.48;;;;;;;21.52;45.65;95274.63;5123811;27;20227;-83
2022/05/12 09:25:42;;;;;;;48.88;9.23;;;;;;;21.44;44.71;95241.56;5134493;27;20282;-83
2022/05/12 09:28:48;;;;;;;20.23;6.82;;;;;;;21.75;44.17;95273.19;5129208;27;20198;-83
2022/05/12 09:31:32;;;;;;;37.38;7.80;;;;;;;21.83;43.43;95262.81;5129603;27;20220;-83
2022/05/12 09:34:43;;;;;;;18.15;5.85;;;;;;;21.88;44.54;95251.44;5121109;27;20192;-84
2022/05/12 09:40:50;;;;;;;9.73;5.80;;;;;;;21.87;42.60;95237.44;5072687;27;20195;-83
2022/05/12 09:43:40;;;;;;;5.82;5.00;;;;;;;21.98;44.04;95240.81;5121649;28;20203;-85
2022/05/12 09:46:45;;;;;;;12.10;5.13;;;;;;;22.49;41.65;95273.03;5119556;28;20688;-81
2022/05/12 09:49:25;;;;;;;82.75;11.95;;;;;;;22.68;40.96;95263.38;5105885;28;20727;-81
2022/05/12 09:51:53;;;;;;;55.22;9.32;;;;;;;22.72;40.60;95245.03;5117212;28;20681;-84
2022/05/12 09:54:28;;;;;;;15.40;5.90;;;;;;;23.17;40.94;95287.03;5123964;28;20207;-84
2022/05/12 09:57:18;;;;;;;38.08;8.00;;;;;;;23.24;41.88;95260.94;5124446;28;20203;-86
2022/05/12 09:59:58;;;;;;;49.67;8.82;;;;;;;23.50;40.97;95272.91;5138800;28;20267;-84
2022/05/12 10:08:19;;;;;;;26.98;6.22;;;;;;;23.85;36.91;95281.50;5132997;28;20244;-83
2022/05/12 10:10:50;;;;;;;40.72;6.70;;;;;;;24.11;37.64;95282.78;5131340;28;20529;-84
2022/05/12 10:13:25;;;;;;;5.88;4.32;;;;;;;24.19;34.95;95255.53;5122984;28;20188;-84
2022/05/12 10:15:55;;;;;;;25.88;6.10;;;;;;;24.31;35.77;95260.44;5121816;28;20223;-85
2022/05/12 10:18:29;;;;;;;9.93;4.63;;;;;;;24.56;36.18;95266.13;5121328;28;20208;-84
2022/05/12 10:21:07;;;;;;;13.38;4.47;;;;;;;24.81;34.92;95265.78;5114549;28;20296;-84
2022/05/12 10:23:43;;;;;;;11.48;4.72;;;;;;;24.96;33.46;95255.94;5122765;28;20214;-83
2022/05/12 10:26:15;;;;;;;7.93;4.40;;;;;;;25.13;33.27;95258.81;5132125;28;20191;-84
2022/05/12 10:28:53;;;;;;;8.50;4.03;;;;;;;25.28;32.52;95255.91;5131654;28;20192;-84
2022/05/12 10:31:27;;;;;;;9.75;4.72;;;;;;;25.49;33.68;95246.44;5126170;27;20203;-85
2022/05/12 10:34:03;;;;;;;7.63;4.70;;;;;;;25.66;33.48;95251.16;5135218;27;20202;-83
2022/05/12 10:36:53;;;;;;;6.30;4.18;;;;;;;25.84;31.21;95247.59;5137836;27;20190;-84
2022/05/12 10:39:27;;;;;;;7.38;3.97;;;;;;;25.95;31.77;95230.28;5136608;27;20199;-84
2022/05/12 10:42:12;;;;;;;10.52;4.30;;;;;;;26.22;31.93;95234.78;5130035;27;20195;-84
2022/05/12 10:45:04;;;;;;;6.97;3.80;;;;;;;26.40;30.94;95241.84;5126965;27;20222;-84
2022/05/12 10:47:53;;;;;;;12.48;3.90;;;;;;;26.64;30.12;95231.63;5135179;27;20196;-84
2022/05/12 10:50:47;;;;;;;8.57;3.58;;;;;;;26.48;30.30;95201.09;5122095;27;20257;-85
2022/05/12 10:53:32;;;;;;;6.28;3.95;;;;;;;26.70;30.63;95214.41;5129567;27;20222;-83
2022/05/12 10:56:14;;;;;;;7.97;4.10;;;;;;;26.93;29.87;95225.84;5128696;27;20252;-84
2022/05/12 10:58:47;;;;;;;9.23;3.70;;;;;;;27.08;29.99;95222.00;5135285;27;20206;-83
2022/05/12 11:01:20;;;;;;;5.35;3.45;;;;;;;27.29;29.40;95223.03;5127195;27;20298;-82
2022/05/12 11:03:57;;;;;;;5.07;3.50;;;;;;;27.36;28.55;95218.06;5124938;27;20700;-83
2022/05/12 11:06:30;;;;;;;7.03;4.00;;;;;;;27.58;29.45;95231.34;5126691;27;20203;-77
2022/05/12 11:09:16;;;;;;;6.75;3.83;;;;;;;27.72;29.88;95215.97;5127105;27;20266;-77
2022/05/12 11:11:48;;;;;;;6.88;3.95;;;;;;;28.01;30.82;95212.69;5129579;27;20575;-78
2022/05/12 11:14:22;;;;;;;12.77;4.38;;;;;;;28.06;30.05;95215.25;5130290;27;20624;-77
2022/05/12 11:17:02;;;;;;;17.05;4.20;;;;;;;27.91;30.28;95204.97;5131762;27;20211;-83
2022/05/12 11:19:39;;;;;;;13.48;4.05;;;;;;;27.94;29.05;95186.44;5127644;27;20570;-84
2022/05/12 11:22:27;;;;;;;8.40;4.00;;;;;;;28.20;28.79;95193.72;5126339;27;20221;-84
2022/05/12 11:25:06;;;;;;;8.80;3.88;;;;;;;28.27;29.37;95188.66;5129003;27;20665;-83
2022/05/12 11:27:45;;;;;;;5.32;4.13;;;;;;;28.26;29.18;95192.44;5114329;28;20200;-82
2022/05/12 11:30:30;;;;;;;7.00;3.88;;;;;;;28.17;29.33;95185.19;5126145;27;20583;-82
2022/05/12 11:33:10;;;;;;;15.15;5.32;;;;;;;27.92;29.52;95177.94;5121894;27;20187;-83
2022/05/12 11:35:43;;;;;;;11.57;4.82;;;;;;;28.01;29.82;95176.06;5128978;27;20191;-82
2022/05/12 11:38:11;;;;;;;7.68;3.88;;;;;;;28.20;28.63;95177.66;5141262;27;20191;-82
2022/05/12 11:40:54;;;;;;;8.45;4.10;;;;;;;28.48;29.21;95168.97;5117909;27;20651;-83
2022/05/12 11:46:41;;;;;;;9.52;3.40;;;;;;;28.63;27.01;95171.16;5127873;27;20263;-83
2022/05/12 11:49:26;;;;;;;6.60;3.60;;;;;;;28.73;26.81;95164.69;5128132;27;20195;-85
2022/05/12 11:52:03;;;;;;;20.92;5.30;;;;;;;28.88;27.79;95164.16;5125738;27;20199;-83
2022/05/12 11:54:34;;;;;;;12.60;4.68;;;;;;;28.97;28.46;95154.22;5129994;27;20244;-83
2022/05/12 11:57:04;;;;;;;9.35;3.80;;;;;;;29.31;27.77;95155.16;5120637;27;20669;-83
2022/05/12 11:59:49;;;;;;;5.38;3.70;;;;;;;29.33;27.80;95161.78;5122514;27;20195;-84
2022/05/12 12:02:52;;;;;;;8.23;4.00;;;;;;;29.18;28.02;95152.38;5124755;27;20202;-83
2022/05/12 12:05:58;;;;;;;7.30;4.25;;;;;;;29.29;28.21;95154.72;5122547;27;20183;-83
2022/05/12 12:08:45;;;;;;;8.27;4.25;;;;;;;29.30;28.64;95145.56;5133547;27;20203;-84
2022/05/12 12:11:29;;;;;;;6.03;3.92;;;;;;;29.35;28.56;95137.34;5133603;27;20596;-84